createdAt,value
2018-07-15T00:02:12.413Z,101464.55
2018-07-15T00:04:41.248Z,101478.28
2018-07-15T00:07:10.066Z,101482.58
2018-07-15T00:09:38.928Z,101476.60
2018-07-15T00:12:07.883Z,101472.66
2018-07-15T00:14:36.713Z,101477.67
2018-07-15T00:17:05.553Z,101467.72
2018-07-15T00:19:34.695Z,101460.69
2018-07-15T00:22:03.501Z,101460.86
2018-07-15T00:24:32.321Z,101450.56
2018-07-15T00:27:01.180Z,101450.09
2018-07-15T00:29:30.040Z,101445.97
2018-07-15T00:31:58.885Z,101451.97
2018-07-15T00:34:27.715Z,101447.72
2018-07-15T00:36:56.560Z,101449.46
2018-07-15T00:39:25.410Z,101447.37
2018-07-15T00:41:57.249Z,101443.63
2018-07-15T00:44:26.248Z,101453.23
2018-07-15T00:46:55.449Z,101450.83
2018-07-15T00:49:24.276Z,101450.66
2018-07-15T00:51:53.279Z,101448.94
2018-07-15T00:54:22.127Z,101447.94
2018-07-15T00:56:51.161Z,101445.19
2018-07-15T00:59:19.910Z,101450.02
2018-07-15T01:01:48.777Z,101447.44
2018-07-15T01:04:17.636Z,101446.94
2018-07-15T01:06:46.491Z,101444.53
2018-07-15T01:09:15.315Z,101444.19
2018-07-15T01:11:44.159Z,101446.59
2018-07-15T01:14:12.995Z,101447.30
2018-07-15T01:16:41.867Z,101441.81
2018-07-15T01:19:10.947Z,101445.41
2018-07-15T01:21:39.769Z,101444.22
2018-07-15T01:24:08.648Z,101443.17
2018-07-15T01:27:13.055Z,101440.59
2018-07-15T01:29:41.915Z,101443.00
2018-07-15T01:32:10.756Z,101438.89
2018-07-15T01:34:39.589Z,101442.16
2018-07-15T01:37:08.434Z,101438.20
2018-07-15T01:39:37.304Z,101437.47
2018-07-15T01:42:06.471Z,101436.45
2018-07-15T01:44:35.313Z,101434.20
2018-07-15T01:47:04.155Z,101427.70
2018-07-15T01:49:33.014Z,101432.17
2018-07-15T01:52:01.846Z,101427.20
2018-07-15T01:54:30.694Z,101425.30
2018-07-15T01:56:59.572Z,101425.98
2018-07-15T01:59:28.408Z,101426.14
2018-07-15T02:01:57.314Z,101429.22
2018-07-15T02:04:26.188Z,101431.10
2018-07-15T02:06:55.032Z,101424.09
2018-07-15T02:09:23.899Z,101423.57
2018-07-15T02:11:53.167Z,101418.06
2018-07-15T02:14:22.047Z,101420.31
2018-07-15T02:16:50.893Z,101419.42
2018-07-15T02:19:19.757Z,101414.78
2018-07-15T02:21:48.591Z,101418.55
2018-07-15T02:24:17.497Z,101416.30
2018-07-15T02:26:46.357Z,101418.00
2018-07-15T02:29:15.246Z,101420.39
2018-07-15T02:31:44.073Z,101415.72
2018-07-15T02:34:12.945Z,101416.20
2018-07-15T02:36:41.851Z,101415.50
2018-07-15T02:39:11.172Z,101419.41
2018-07-15T02:41:40.029Z,101414.42
2018-07-15T02:44:08.889Z,101412.13
2018-07-15T02:46:37.723Z,101410.09
2018-07-15T02:49:06.537Z,101407.98
2018-07-15T02:51:35.404Z,101401.81
2018-07-15T02:54:04.231Z,101408.27
2018-07-15T02:56:33.300Z,101409.78
2018-07-15T02:59:02.142Z,101405.88
2018-07-15T03:01:31.032Z,101405.02
2018-07-15T03:03:59.876Z,101401.73
2018-07-15T03:06:28.744Z,101392.13
2018-07-15T03:08:57.565Z,101394.86
2018-07-15T03:11:26.392Z,101399.47
2018-07-15T03:13:55.218Z,101398.45
2018-07-15T03:16:24.077Z,101394.86
2018-07-15T03:18:53.044Z,101395.38
2018-07-15T03:21:21.871Z,101395.16
2018-07-15T03:23:50.767Z,101395.28
2018-07-15T03:26:19.659Z,101390.13
2018-07-15T03:28:48.493Z,101391.34
2018-07-15T03:31:17.316Z,101390.64
2018-07-15T03:33:46.182Z,101386.73
2018-07-15T03:36:15.011Z,101387.08
2018-07-15T03:38:43.921Z,101382.78
2018-07-15T03:41:16.295Z,101382.28
2018-07-15T03:43:45.155Z,101385.31
2018-07-15T03:46:13.971Z,101383.23
2018-07-15T03:48:42.805Z,101385.42
2018-07-15T03:51:11.670Z,101385.11
2018-07-15T03:53:40.511Z,101384.59
2018-07-15T03:56:09.447Z,101384.92
2018-07-15T03:58:38.283Z,101384.26
2018-07-15T04:01:07.132Z,101389.10
2018-07-15T04:03:35.979Z,101386.21
2018-07-15T04:06:04.858Z,101386.21
2018-07-15T04:08:33.735Z,101389.90
2018-07-15T04:11:02.545Z,101386.72
2018-07-15T04:13:31.450Z,101388.19
2018-07-15T04:16:00.339Z,101392.09
2018-07-15T04:18:29.175Z,101385.92
2018-07-15T04:20:58.025Z,101385.92
2018-07-15T04:23:28.163Z,101380.31
2018-07-15T04:25:57.019Z,101380.66
2018-07-15T04:28:25.877Z,101384.77
2018-07-15T04:30:54.704Z,101378.12
2018-07-15T04:33:23.610Z,101380.39
2018-07-15T04:35:52.443Z,101378.53
2018-07-15T04:38:21.280Z,101377.01
2018-07-15T04:40:50.112Z,101380.13
2018-07-15T04:43:18.951Z,101374.52
2018-07-15T04:45:47.787Z,101376.08
2018-07-15T04:48:16.646Z,101377.13
2018-07-15T04:50:45.532Z,101386.04
2018-07-15T04:53:14.405Z,101387.59
2018-07-15T04:55:43.229Z,101388.11
2018-07-15T04:58:12.092Z,101395.20
2018-07-15T05:00:40.916Z,101390.59
2018-07-15T05:03:09.791Z,101387.06
2018-07-15T05:05:38.601Z,101394.34
2018-07-15T05:08:10.314Z,101387.92
2018-07-15T05:10:39.151Z,101384.52
2018-07-15T05:13:08.007Z,101384.81
2018-07-15T05:15:36.904Z,101383.58
2018-07-15T05:18:05.785Z,101386.82
2018-07-15T05:20:34.631Z,101389.59
2018-07-15T05:23:03.485Z,101394.38
2018-07-15T05:25:32.373Z,101387.41
2018-07-15T05:28:01.221Z,101390.50
2018-07-15T05:30:31.166Z,101391.88
2018-07-15T05:33:00.029Z,101390.17
2018-07-15T05:35:28.844Z,101388.55
2018-07-15T05:37:57.780Z,101390.37
2018-07-15T05:40:26.633Z,101390.77
2018-07-15T05:42:55.490Z,101395.22
2018-07-15T05:45:24.319Z,101399.16
2018-07-15T05:47:53.152Z,101399.66
2018-07-15T05:50:22.019Z,101395.04
2018-07-15T05:52:50.878Z,101400.31
2018-07-15T05:55:19.751Z,101404.08
2018-07-15T05:57:48.604Z,101400.09
2018-07-15T06:00:17.434Z,101401.70
2018-07-15T06:02:46.645Z,101401.99
2018-07-15T06:05:15.472Z,101398.39
2018-07-15T06:07:44.326Z,101394.39
2018-07-15T06:10:13.143Z,101400.30
2018-07-15T06:12:41.993Z,101392.02
2018-07-15T06:15:11.009Z,101397.09
2018-07-15T06:17:39.829Z,101396.41
2018-07-15T06:20:08.883Z,101389.61
2018-07-15T06:22:37.732Z,101395.23
2018-07-15T06:25:06.604Z,101389.80
2018-07-15T06:27:35.427Z,101391.73
2018-07-15T06:30:04.286Z,101388.51
2018-07-15T06:32:33.113Z,101380.98
2018-07-15T06:35:01.940Z,101381.78
2018-07-15T06:37:32.347Z,101379.70
2018-07-15T06:40:01.182Z,101386.42
2018-07-15T06:42:30.160Z,101378.23
2018-07-15T06:44:59.021Z,101375.80
2018-07-15T06:47:27.878Z,101372.80
2018-07-15T06:49:56.744Z,101374.57
2018-07-15T06:52:25.534Z,101373.09
2018-07-15T06:54:54.380Z,101378.67
2018-07-15T06:57:23.228Z,101374.73
2018-07-15T07:00:27.562Z,101377.14
2018-07-15T07:02:56.413Z,101376.50
2018-07-15T07:05:25.253Z,101373.80
2018-07-15T07:07:54.093Z,101372.66
2018-07-15T07:10:22.956Z,101371.72
2018-07-15T07:12:51.797Z,101371.95
2018-07-15T07:15:20.619Z,101377.73
2018-07-15T07:17:49.479Z,101376.00
2018-07-15T07:20:18.316Z,101374.27
2018-07-15T07:22:48.459Z,101369.61
2018-07-15T07:25:17.342Z,101371.36
2018-07-15T07:27:46.207Z,101372.73
2018-07-15T07:30:15.048Z,101370.30
2018-07-15T07:32:43.893Z,101372.55
2018-07-15T07:35:12.709Z,101371.26
2018-07-15T07:37:41.555Z,101374.00
2018-07-15T07:40:10.421Z,101378.44
2018-07-15T07:42:39.275Z,101374.81
2018-07-15T07:45:08.154Z,101372.63
2018-07-15T07:47:37.007Z,101366.69
2018-07-15T07:50:05.906Z,101359.75
2018-07-15T07:52:34.743Z,101366.35
2018-07-15T07:55:03.621Z,101370.35
2018-07-15T07:57:32.744Z,101361.63
2018-07-15T08:00:01.596Z,101368.89
2018-07-15T08:02:30.486Z,101366.89
2018-07-15T08:04:59.317Z,101371.05
2018-07-15T08:07:28.215Z,101362.75
2018-07-15T08:09:57.166Z,101363.21
2018-07-15T08:12:26.068Z,101362.81
2018-07-15T08:14:54.842Z,101357.81
2018-07-15T08:17:23.687Z,101358.91
2018-07-15T08:19:52.517Z,101361.55
2018-07-15T08:22:21.357Z,101365.60
2018-07-15T08:24:50.184Z,101350.76
2018-07-15T08:27:19.025Z,101354.11
2018-07-15T08:30:27.638Z,101351.69
2018-07-15T08:32:56.512Z,101351.67
2018-07-15T08:35:25.516Z,101349.69
2018-07-15T08:37:54.389Z,101344.70
2018-07-15T08:40:23.193Z,101350.08
2018-07-15T08:42:52.036Z,101345.59
2018-07-15T08:45:20.873Z,101341.72
2018-07-15T08:47:49.713Z,101347.09
2018-07-15T08:50:18.619Z,101346.92
2018-07-15T08:52:50.578Z,101345.97
2018-07-15T08:55:19.472Z,101339.31
2018-07-15T08:57:48.293Z,101337.69
2018-07-15T09:00:17.160Z,101337.42
2018-07-15T09:02:45.990Z,101338.38
2018-07-15T09:05:14.841Z,101330.86
2018-07-15T09:07:43.699Z,101330.52
2018-07-15T09:10:12.523Z,101328.59
2018-07-15T09:12:41.437Z,101325.73
2018-07-15T09:15:10.272Z,101324.17
2018-07-15T09:17:39.084Z,101325.91
2018-07-15T09:20:07.898Z,101325.59
2018-07-15T09:22:36.714Z,101324.19
2018-07-15T09:25:05.593Z,101322.75
2018-07-15T09:27:34.460Z,101318.72
2018-07-15T09:30:03.307Z,101320.81
2018-07-15T09:32:32.125Z,101318.86
2018-07-15T09:35:00.943Z,101318.52
2018-07-15T09:37:33.175Z,101322.52
2018-07-15T09:40:02.017Z,101321.63
2018-07-15T09:42:30.854Z,101322.06
2018-07-15T09:44:59.694Z,101322.00
2018-07-15T09:47:28.534Z,101329.20
2018-07-15T09:49:57.360Z,101324.91
2018-07-15T09:52:26.158Z,101320.28
2018-07-15T09:54:55.014Z,101318.46
2018-07-15T09:57:23.884Z,101313.22
2018-07-15T09:59:52.701Z,101307.27
2018-07-15T10:02:21.559Z,101311.87
2018-07-15T10:04:50.605Z,101311.43
2018-07-15T10:07:19.455Z,101309.10
2018-07-15T10:09:48.276Z,101310.77
2018-07-15T10:12:17.104Z,101307.27
2018-07-15T10:14:45.952Z,101308.33
2018-07-15T10:17:14.774Z,101301.97
2018-07-15T10:19:43.627Z,101300.42
2018-07-15T10:22:21.110Z,101295.38
2018-07-15T10:24:49.939Z,101288.44
2018-07-15T10:27:18.807Z,101291.23
2018-07-15T10:29:47.642Z,101289.45
2018-07-15T10:32:16.507Z,101284.75
2018-07-15T10:34:45.450Z,101289.78
2018-07-15T10:37:14.273Z,101287.84
2018-07-15T10:39:43.128Z,101285.50
2018-07-15T10:42:11.977Z,101281.16
2018-07-15T10:44:41.002Z,101282.74
2018-07-15T10:47:09.790Z,101271.52
2018-07-15T10:49:38.625Z,101274.94
2018-07-15T10:52:07.498Z,101272.88
2018-07-15T10:54:36.355Z,101273.80
2018-07-15T10:57:05.202Z,101277.05
2018-07-15T10:59:34.023Z,101270.25
2018-07-15T11:02:02.895Z,101267.80
2018-07-15T11:04:31.733Z,101263.39
2018-07-15T11:07:36.158Z,101269.80
2018-07-15T11:10:05.098Z,101259.62
2018-07-15T11:12:36.736Z,101252.98
2018-07-15T11:15:05.605Z,101249.89
2018-07-15T11:17:34.455Z,101248.92
2018-07-15T11:20:03.300Z,101247.00
2018-07-15T11:22:32.166Z,101235.55
2018-07-15T11:25:00.954Z,101238.52
2018-07-15T11:27:29.836Z,101241.05
2018-07-15T11:29:58.740Z,101233.48
2018-07-15T11:32:27.567Z,101235.72
2018-07-15T11:34:56.423Z,101231.55
2018-07-15T11:37:25.255Z,101230.45
2018-07-15T11:39:54.115Z,101222.83
2018-07-15T11:42:22.942Z,101224.59
2018-07-15T11:44:51.795Z,101222.83
2018-07-15T11:47:20.616Z,101222.27
2018-07-15T11:49:49.500Z,101212.52
2018-07-15T11:52:21.242Z,101220.03
2018-07-15T11:54:50.171Z,101224.39
2018-07-15T11:57:18.994Z,101210.52
2018-07-15T11:59:47.825Z,101205.19
2018-07-15T12:02:16.672Z,101213.45
2018-07-15T12:04:45.590Z,101204.98
2018-07-15T12:07:14.402Z,101198.84
2018-07-15T12:09:43.250Z,101197.69
2018-07-15T12:12:12.083Z,101186.37
2018-07-15T12:14:42.192Z,101184.91
2018-07-15T12:17:11.052Z,101187.88
2018-07-15T12:19:39.888Z,101195.66
2018-07-15T12:22:08.723Z,101183.55
2018-07-15T12:24:37.572Z,101184.31
2018-07-15T12:27:06.433Z,101183.41
2018-07-15T12:29:35.268Z,101187.80
2018-07-15T12:32:04.088Z,101188.49
2018-07-15T12:34:32.921Z,101184.41
2018-07-15T12:37:02.978Z,101182.84
2018-07-15T12:39:31.875Z,101178.47
2018-07-15T12:42:00.691Z,101174.03
2018-07-15T12:44:29.542Z,101175.16
2018-07-15T12:46:58.371Z,101169.18
2018-07-15T12:49:27.191Z,101168.61
2018-07-15T12:51:56.052Z,101165.84
2018-07-15T12:54:24.871Z,101168.66
2018-07-15T12:56:53.722Z,101157.16
2018-07-15T12:59:22.611Z,101154.98
2018-07-15T13:01:51.422Z,101149.58
2018-07-15T13:04:20.281Z,101150.98
2018-07-15T13:06:49.122Z,101141.86
2018-07-15T13:09:17.969Z,101137.66
2018-07-15T13:11:46.811Z,101141.91
2018-07-15T13:14:15.662Z,101138.57
2018-07-15T13:16:44.479Z,101136.64
2018-07-15T13:19:13.300Z,101132.18
2018-07-15T13:21:42.236Z,101122.06
2018-07-15T13:24:11.140Z,101115.34
2018-07-15T13:26:39.993Z,101109.73
2018-07-15T13:29:08.833Z,101104.11
2018-07-15T13:31:37.687Z,101102.42
2018-07-15T13:34:06.535Z,101104.67
2018-07-15T13:36:35.356Z,101103.55
2018-07-15T13:39:04.919Z,101104.14
2018-07-15T13:41:33.845Z,101099.67
2018-07-15T13:44:11.336Z,101097.44
2018-07-15T13:46:40.171Z,101096.31
2018-07-15T13:49:09.006Z,101090.42
2018-07-15T13:51:37.855Z,101089.86
2018-07-15T13:54:06.703Z,101087.59
2018-07-15T13:56:35.553Z,101088.17
2018-07-15T13:59:04.368Z,101086.79
2018-07-15T14:01:33.189Z,101086.77
2018-07-15T14:04:02.080Z,101085.38
2018-07-15T14:06:30.907Z,101083.68
2018-07-15T14:08:59.755Z,101075.00
2018-07-15T14:11:28.621Z,101072.44
2018-07-15T14:13:57.464Z,101073.31
2018-07-15T14:16:26.301Z,101073.87
2018-07-15T14:18:55.130Z,101076.41
2018-07-15T14:21:23.983Z,101062.10
2018-07-15T14:23:52.831Z,101059.28
2018-07-15T14:26:21.823Z,101063.48
2018-07-15T14:28:50.707Z,101062.64
2018-07-15T14:31:19.543Z,101067.98
2018-07-15T14:33:48.373Z,101066.25
2018-07-15T14:36:17.183Z,101060.09
2018-07-15T14:38:46.024Z,101056.42
2018-07-15T14:41:14.844Z,101062.31
2018-07-15T14:43:43.709Z,101057.84
2018-07-15T14:46:12.543Z,101052.22
2018-07-15T14:48:41.534Z,101054.16
2018-07-15T14:51:10.371Z,101058.08
2018-07-15T14:53:39.198Z,101055.84
2018-07-15T14:56:08.139Z,101050.22
2018-07-15T14:58:36.864Z,101055.81
2018-07-15T15:01:05.695Z,101046.61
2018-07-15T15:03:34.513Z,101047.70
2018-07-15T15:06:03.371Z,101053.04
2018-07-15T15:08:32.198Z,101049.97
2018-07-15T15:11:02.351Z,101048.83
2018-07-15T15:13:31.201Z,101049.41
2018-07-15T15:16:00.026Z,101051.08
2018-07-15T15:18:28.870Z,101047.17
2018-07-15T15:20:57.808Z,101042.95
2018-07-15T15:23:26.636Z,101039.59
2018-07-15T15:25:55.463Z,101040.98
2018-07-15T15:28:24.285Z,101038.17
2018-07-15T15:30:53.128Z,101031.70
2018-07-15T15:33:22.106Z,101036.19
2018-07-15T15:35:51.167Z,101033.11
2018-07-15T15:38:20.004Z,101034.78
2018-07-15T15:40:48.854Z,101030.88
2018-07-15T15:43:17.690Z,101030.81
2018-07-15T15:45:46.584Z,101025.77
2018-07-15T15:48:15.434Z,101032.47
2018-07-15T15:50:44.232Z,101028.53
2018-07-15T15:53:13.084Z,101023.77
2018-07-15T15:59:32.552Z,101017.86
2018-07-15T16:02:01.398Z,101018.66
2018-07-15T16:04:30.315Z,101015.29
2018-07-15T16:06:59.154Z,101012.77
2018-07-15T16:09:27.981Z,101009.13
2018-07-15T16:11:56.806Z,101006.52
2018-07-15T16:14:25.659Z,101008.44
2018-07-15T16:16:54.557Z,101005.37
2018-07-15T16:19:23.388Z,101007.08
2018-07-15T16:21:52.238Z,101002.28
2018-07-15T16:24:21.046Z,100998.72
2018-07-15T16:26:49.915Z,100997.62
2018-07-15T16:29:18.726Z,100994.19
2018-07-15T16:31:47.552Z,100991.63
2018-07-15T16:34:16.397Z,100989.95
2018-07-15T16:36:45.230Z,100990.23
2018-07-15T16:39:14.074Z,100988.25
2018-07-15T16:41:50.008Z,100984.56
2018-07-15T16:44:18.835Z,100987.03
2018-07-15T16:46:47.736Z,100991.44
2018-07-15T16:49:16.544Z,100993.59
2018-07-15T16:51:45.372Z,100988.55
2018-07-15T16:54:14.231Z,100987.44
2018-07-15T16:56:43.039Z,100989.59
2018-07-15T16:59:11.900Z,100986.56
2018-07-15T17:01:40.764Z,100985.39
2018-07-15T17:04:09.617Z,100986.20
2018-07-15T17:06:38.445Z,100983.92
2018-07-15T17:09:07.291Z,100979.72
2018-07-15T17:11:36.391Z,100979.97
2018-07-15T17:14:05.218Z,100975.40
2018-07-15T17:16:34.037Z,100977.06
2018-07-15T17:19:02.891Z,100977.91
2018-07-15T17:21:31.727Z,100971.69
2018-07-15T17:24:00.561Z,100978.05
2018-07-15T17:26:29.392Z,100975.23
2018-07-15T17:28:58.186Z,100976.34
2018-07-15T17:31:27.033Z,100973.86
2018-07-15T17:33:55.848Z,100977.50
2018-07-15T17:36:24.672Z,100974.30
2018-07-15T17:38:59.688Z,100975.89
2018-07-15T17:41:28.519Z,100983.89
2018-07-15T17:43:57.321Z,100976.31
2018-07-15T17:46:26.125Z,100984.67
2018-07-15T17:48:54.968Z,100982.06
2018-07-15T17:51:23.834Z,100982.55
2018-07-15T17:53:52.641Z,100982.77
2018-07-15T17:56:21.460Z,100980.78
2018-07-15T17:58:50.414Z,100979.89
2018-07-15T18:01:19.142Z,100981.22
2018-07-15T18:03:48.068Z,100981.77
2018-07-15T18:06:17.105Z,100980.07
2018-07-15T18:08:45.994Z,100981.09
2018-07-15T18:11:14.817Z,100973.19
2018-07-15T18:13:43.703Z,100982.37
2018-07-15T18:16:12.543Z,100978.44
2018-07-15T18:18:41.375Z,100984.78
2018-07-15T18:21:10.218Z,100978.91
2018-07-15T18:23:39.122Z,100975.13
2018-07-15T18:26:07.987Z,100986.72
2018-07-15T18:28:36.823Z,100984.64
2018-07-15T18:31:05.748Z,100984.23
2018-07-15T18:33:34.592Z,100985.84
2018-07-15T18:36:03.516Z,100985.44
2018-07-15T18:38:32.364Z,100986.34
2018-07-15T18:41:01.225Z,100981.42
2018-07-15T18:43:30.141Z,100990.81
2018-07-15T18:46:06.037Z,100991.31
2018-07-15T18:48:34.883Z,100989.80
2018-07-15T18:51:03.777Z,100991.69
2018-07-15T18:53:32.648Z,100997.50
2018-07-15T18:56:01.417Z,100994.66
2018-07-15T18:58:30.249Z,100995.13
2018-07-15T19:00:59.074Z,101002.77
2018-07-15T19:03:27.910Z,100996.47
2018-07-15T19:05:56.768Z,101002.78
2018-07-15T19:09:24.113Z,101001.27
2018-07-15T19:11:52.961Z,100999.33
2018-07-15T19:14:21.847Z,101005.48
2018-07-15T19:16:50.710Z,101005.59
2018-07-15T19:19:19.590Z,101004.70
2018-07-15T19:21:48.410Z,101008.41
2018-07-15T19:24:17.310Z,101007.86
2018-07-15T19:26:46.173Z,101015.90
2018-07-15T19:29:15.004Z,101018.70
2018-07-15T19:32:41.370Z,101015.38
2018-07-15T19:35:10.227Z,101012.27
2018-07-15T19:37:39.083Z,101022.41
2018-07-15T19:40:07.943Z,101024.30
2018-07-15T19:42:36.770Z,101027.63
2018-07-15T19:45:05.762Z,101027.25
2018-07-15T19:47:34.609Z,101032.72
2018-07-15T19:50:03.485Z,101033.27
2018-07-15T19:52:32.387Z,101039.32
2018-07-15T19:55:04.494Z,101035.70
2018-07-15T19:57:33.324Z,101042.59
2018-07-15T20:00:02.181Z,101047.23
2018-07-15T20:02:31.030Z,101043.02
2018-07-15T20:04:59.906Z,101045.50
2018-07-15T20:07:28.721Z,101051.38
2018-07-15T20:09:57.563Z,101055.62
2018-07-15T20:12:26.478Z,101065.45
2018-07-15T20:14:55.245Z,101065.55
2018-07-15T20:17:24.061Z,101059.14
2018-07-15T20:19:52.973Z,101066.97
2018-07-15T20:22:21.746Z,101060.77
2018-07-15T20:24:50.573Z,101062.84
2018-07-15T20:27:19.406Z,101072.54
2018-07-15T20:29:48.242Z,101077.39
2018-07-15T20:32:17.085Z,101078.13
2018-07-15T20:34:45.906Z,101076.77
2018-07-15T20:37:14.837Z,101076.09
2018-07-15T20:40:44.609Z,101073.18
2018-07-15T20:43:13.463Z,101069.22
2018-07-15T20:45:42.294Z,101068.27
2018-07-15T20:48:11.146Z,101068.69
2018-07-15T20:50:39.975Z,101072.75
2018-07-15T20:53:08.836Z,101069.86
2018-07-15T20:55:37.673Z,101077.28
2018-07-15T20:58:06.515Z,101076.16
2018-07-15T21:00:35.396Z,101079.23
2018-07-15T21:03:04.304Z,101075.97
2018-07-15T21:05:33.144Z,101082.39
2018-07-15T21:08:01.968Z,101085.51
2018-07-15T21:10:30.796Z,101082.88
2018-07-15T21:12:59.626Z,101084.26
2018-07-15T21:15:28.464Z,101079.39
2018-07-15T21:17:57.268Z,101082.16
2018-07-15T21:20:26.214Z,101087.19
2018-07-15T21:22:55.102Z,101083.79
2018-07-15T21:25:27.219Z,101082.61
2018-07-15T21:27:56.011Z,101075.36
2018-07-15T21:30:24.846Z,101084.63
2018-07-15T21:32:53.724Z,101079.55
2018-07-15T21:35:22.555Z,101080.83
2018-07-15T21:37:51.429Z,101084.23
2018-07-15T21:40:20.225Z,101079.83
2018-07-15T21:42:49.080Z,101078.55
2018-07-15T21:45:17.939Z,101077.06
2018-07-15T21:47:49.673Z,101074.83
2018-07-15T21:50:18.536Z,101075.77
2018-07-15T21:52:47.362Z,101080.23
2018-07-15T21:55:16.397Z,101076.70
2018-07-15T21:57:45.216Z,101070.66
2018-07-15T22:00:14.110Z,101077.43
2018-07-15T22:02:42.945Z,101077.91
2018-07-15T22:05:11.825Z,101086.34
2018-07-15T22:08:17.382Z,101085.75
2018-07-15T22:10:47.197Z,101088.36
2018-07-15T22:13:16.030Z,101097.81
2018-07-15T22:15:44.866Z,101092.70
2018-07-15T22:18:13.841Z,101088.72
2018-07-15T22:20:42.727Z,101089.84
2018-07-15T22:23:11.588Z,101084.05
2018-07-15T22:25:40.422Z,101087.33
2018-07-15T22:28:09.275Z,101092.22
2018-07-15T22:30:38.158Z,101094.84
2018-07-15T22:33:06.990Z,101089.59
2018-07-15T22:35:35.843Z,101090.87
2018-07-15T22:38:04.695Z,101089.95
2018-07-15T22:40:33.527Z,101087.22
2018-07-15T22:43:02.326Z,101094.70
2018-07-15T22:45:31.195Z,101089.27
2018-07-15T22:48:00.044Z,101091.80
2018-07-15T22:50:28.889Z,101093.48
2018-07-15T22:52:57.724Z,101090.93
2018-07-15T22:55:26.564Z,101088.38
2018-07-15T22:57:55.415Z,101093.95
2018-07-15T23:00:24.248Z,101091.17
2018-07-15T23:02:53.086Z,101093.05
2018-07-15T23:05:49.953Z,101093.18
2018-07-15T23:08:18.779Z,101092.98
2018-07-15T23:10:47.771Z,101094.55
2018-07-15T23:13:17.112Z,101086.68
2018-07-15T23:15:46.227Z,101086.44
2018-07-15T23:18:15.078Z,101087.95
2018-07-15T23:20:44.700Z,101087.11
2018-07-15T23:23:14.020Z,101091.43
2018-07-15T23:25:42.956Z,101091.29
2018-07-15T23:28:12.826Z,101084.30
2018-07-15T23:30:42.305Z,101087.78
2018-07-15T23:33:11.620Z,101091.24
2018-07-15T23:35:40.439Z,101087.77
2018-07-15T23:38:09.286Z,101087.48
2018-07-15T23:40:38.114Z,101088.42
2018-07-15T23:43:06.949Z,101080.55
2018-07-15T23:45:36.469Z,101085.46
2018-07-15T23:48:05.318Z,101087.41
2018-07-15T23:50:34.164Z,101083.36
2018-07-15T23:53:02.985Z,101086.20
2018-07-15T23:55:31.841Z,101079.86
2018-07-15T23:58:00.680Z,101083.55
